Time,TemperatureF,DewpointF,PressureIn,WindDirection,WindDirectionDegrees,WindSpeedMPH,WindSpeedGustMPH,Humidity,HourlyPrecipIn,Conditions,Clouds,dailyrainin,SoftwareType,DateUTC
2013-05-25 00:01:00,45.5,27.5,29.47,East,81,0.0,0.0,49,0.00,,SKC,0.00,VWS V14.01,2013-05-25 04:01:00,
2013-05-25 00:06:00,45.3,27.3,29.47,NW,312,0.0,3.1,49,0.00,,SKC,0.00,VWS V14.01,2013-05-25 04:06:00,
2013-05-25 00:11:00,45.1,27.1,29.47,ESE,116,0.0,3.1,49,0.00,,SKC,0.00,VWS V14.01,2013-05-25 04:11:00,
2013-05-25 00:16:00,45.3,27.3,29.47,West,272,6.4,6.4,49,0.00,,SKC,0.00,VWS V14.01,2013-05-25 04:16:00,
2013-05-25 00:21:00,45.3,27.3,29.47,NW,322,5.6,5.6,49,0.00,,SKC,0.00,VWS V14.01,2013-05-25 04:21:00,
2013-05-25 00:26:00,45.5,28.0,29.47,SE,133,4.8,4.8,50,0.00,,SKC,0.00,VWS V14.01,2013-05-25 04:26:00,
2013-05-25 00:31:00,45.9,28.8,29.47,NNE,33,0.0,2.2,51,0.00,,SKC,0.00,VWS V14.01,2013-05-25 04:31:00,
2013-05-25 00:36:00,45.5,28.0,29.47,NNW,334,0.0,0.0,50,0.00,,SKC,0.00,VWS V14.01,2013-05-25 04:36:00,
2013-05-25 00:41:00,45.7,28.6,29.47,NE,39,0.0,0.0,51,0.00,,SKC,0.00,VWS V14.01,2013-05-25 04:41:00,
2013-05-25 00:46:00,45.5,28.4,29.47,North,7,4.0,4.0,51,0.00,,SKC,0.00,VWS V14.01,2013-05-25 04:46:00,
2013-05-25 00:51:00,45.5,28.4,29.47,ENE,67,0.0,0.0,51,0.00,,SKC,0.00,VWS V14.01,2013-05-25 04:51:00,
2013-05-25 00:56:00,45.5,28.4,29.47,NW,311,4.8,4.8,51,0.00,,SKC,0.00,VWS V14.01,2013-05-25 04:56:00,
2013-05-25 01:01:00,45.3,28.3,29.47,East,101,0.0,0.0,51,0.00,,SKC,0.00,VWS V14.01,2013-05-25 05:01:00,
2013-05-25 01:06:00,45.3,29.2,29.47,WNW,294,10.5,10.5,53,0.00,,SKC,0.00,VWS V14.01,2013-05-25 05:06:00,
2013-05-25 01:11:00,45.1,29.0,29.47,WSW,246,6.4,6.4,53,0.00,,SKC,0.00,VWS V14.01,2013-05-25 05:11:00,
2013-05-25 01:26:00,45.0,29.3,29.47,NE,35,4.8,4.8,54,0.00,,SKC,0.00,VWS V14.01,2013-05-25 05:26:00,
2013-05-25 01:31:00,45.0,29.3,29.47,SE,134,4.8,5.8,54,0.00,,SKC,0.00,VWS V14.01,2013-05-25 05:31:00,
2013-05-25 01:36:00,45.0,29.3,29.47,NE,41,8.9,8.9,54,0.00,,SKC,0.00,VWS V14.01,2013-05-25 05:36:00,
2013-05-25 01:41:00,45.1,30.0,29.47,ENE,74,4.8,4.8,55,0.00,,SKC,0.00,VWS V14.01,2013-05-25 05:41:00,
2013-05-25 01:46:00,45.1,30.0,29.47,NNW,342,4.0,4.0,55,0.00,,SKC,0.00,VWS V14.01,2013-05-25 05:46:00,
2013-05-25 01:51:00,45.0,29.8,29.47,NNW,345,0.0,0.0,55,0.00,,SKC,0.00,VWS V14.01,2013-05-25 05:51:00,
2013-05-25 01:56:00,45.1,30.4,29.47,East,100,4.8,4.8,56,0.00,,SKC,0.00,VWS V14.01,2013-05-25 05:56:00,
2013-05-25 02:01:00,45.1,30.4,29.44,East,100,0.0,0.0,56,0.00,,SKC,0.00,VWS V14.01,2013-05-25 06:01:00,
2013-05-25 02:06:00,45.0,29.8,29.44,ESE,113,0.0,2.2,55,0.00,,SKC,0.00,VWS V14.01,2013-05-25 06:06:00,
2013-05-25 02:11:00,45.1,30.8,29.44,NE,38,0.0,0.0,57,0.00,,SKC,0.00,VWS V14.01,2013-05-25 06:11:00,
2013-05-25 02:16:00,45.1,30.8,29.44,NE,45,0.0,0.0,57,0.00,,SKC,0.00,VWS V14.01,2013-05-25 06:16:00,
2013-05-25 02:21:00,45.1,31.3,29.44,ESE,113,0.0,0.0,58,0.00,,SKC,0.00,VWS V14.01,2013-05-25 06:21:00,
2013-05-25 02:26:00,45.1,30.8,29.44,South,178,0.0,0.0,57,0.00,,SKC,0.00,VWS V14.01,2013-05-25 06:26:00,
2013-05-25 02:31:00,45.0,30.7,29.44,SW,231,0.0,0.0,57,0.04,,SKC,0.04,VWS V14.01,2013-05-25 06:31:00,
2013-05-25 02:36:00,44.8,30.5,29.44,ESE,116,0.0,2.2,57,0.04,,SKC,0.04,VWS V14.01,2013-05-25 06:36:00,
2013-05-25 02:41:00,44.8,31.3,29.44,NE,43,0.0,0.0,59,0.04,,SKC,0.04,VWS V14.01,2013-05-25 06:41:00,
2013-05-25 02:46:00,44.8,31.8,29.44,NNW,327,0.0,0.0,60,0.04,,SKC,0.04,VWS V14.01,2013-05-25 06:46:00,
2013-05-25 02:51:00,44.8,31.8,29.44,NE,38,0.0,0.0,60,0.04,,SKC,0.04,VWS V14.01,2013-05-25 06:51:00,
2013-05-25 02:56:00,44.8,31.8,29.44,NE,55,0.0,0.0,60,0.04,,SKC,0.04,VWS V14.01,2013-05-25 06:56:00,
2013-05-25 03:01:00,44.8,32.6,29.44,SE,136,0.0,3.1,62,0.04,,SKC,0.04,VWS V14.01,2013-05-25 07:01:00,
2013-05-25 03:06:00,44.8,33.0,29.44,NNW,345,0.0,0.0,63,0.04,,SKC,0.04,VWS V14.01,2013-05-25 07:06:00,
2013-05-25 03:11:00,44.8,33.4,29.44,NNE,18,0.0,2.7,64,0.04,,SKC,0.04,VWS V14.01,2013-05-25 07:11:00,
2013-05-25 03:16:00,44.8,33.0,29.44,NNE,18,0.0,0.0,63,0.04,,SKC,0.04,VWS V14.01,2013-05-25 07:16:00,
2013-05-25 03:21:00,44.8,33.0,29.44,ESE,110,4.0,4.0,63,0.04,,SKC,0.04,VWS V14.01,2013-05-25 07:21:00,
2013-05-25 03:26:00,44.8,33.8,29.44,NE,47,4.8,4.8,65,0.04,,SKC,0.04,VWS V14.01,2013-05-25 07:26:00,
2013-05-25 03:31:00,44.8,34.5,29.44,East,81,0.0,0.0,67,0.00,,SKC,0.04,VWS V14.01,2013-05-25 07:31:00,
2013-05-25 03:36:00,44.8,34.9,29.44,East,81,0.0,0.0,68,0.00,,SKC,0.04,VWS V14.01,2013-05-25 07:36:00,
2013-05-25 03:41:00,44.8,35.2,29.44,North,7,0.0,0.0,69,0.00,,SKC,0.04,VWS V14.01,2013-05-25 07:41:00,
2013-05-25 03:46:00,44.8,35.2,29.44,NW,324,0.0,5.8,69,0.00,,SKC,0.04,VWS V14.01,2013-05-25 07:46:00,
2013-05-25 03:51:00,44.8,35.2,29.44,SSW,204,0.0,2.7,69,0.04,,SKC,0.08,VWS V14.01,2013-05-25 07:51:00,
2013-05-25 03:56:00,44.8,35.2,29.44,ESE,110,5.6,5.6,69,0.04,,SKC,0.08,VWS V14.01,2013-05-25 07:56:00,
2013-05-25 04:01:00,44.8,35.2,29.44,East,81,0.0,0.0,69,0.04,,SKC,0.08,VWS V14.01,2013-05-25 08:01:00,
2013-05-25 04:06:00,44.8,35.2,29.44,ENE,61,0.0,2.7,69,0.04,,SKC,0.08,VWS V14.01,2013-05-25 08:06:00,
2013-05-25 04:11:00,44.8,35.2,29.44,WSW,250,4.0,4.0,69,0.04,,SKC,0.08,VWS V14.01,2013-05-25 08:11:00,
2013-05-25 04:16:00,44.8,35.6,29.44,SE,133,4.0,4.0,70,0.04,,SKC,0.08,VWS V14.01,2013-05-25 08:16:00,
2013-05-25 04:21:00,44.8,35.6,29.44,NNE,19,0.0,2.2,70,0.04,,SKC,0.08,VWS V14.01,2013-05-25 08:21:00,
2013-05-25 04:26:00,44.8,35.6,29.44,ENE,65,4.8,4.8,70,0.04,,SKC,0.08,VWS V14.01,2013-05-25 08:26:00,
2013-05-25 04:31:00,44.8,35.6,29.44,North,357,0.0,2.2,70,0.04,,SKC,0.08,VWS V14.01,2013-05-25 08:31:00,
2013-05-25 04:36:00,44.8,36.0,29.44,NE,52,4.8,4.8,71,0.04,,SKC,0.08,VWS V14.01,2013-05-25 08:36:00,
2013-05-25 04:41:00,44.6,35.8,29.44,ESE,113,4.0,4.0,71,0.04,,SKC,0.08,VWS V14.01,2013-05-25 08:41:00,
2013-05-25 04:46:00,44.6,35.8,29.44,SSE,164,5.6,8.3,71,0.04,,SKC,0.08,VWS V14.01,2013-05-25 08:46:00,
2013-05-25 04:51:00,44.6,35.8,29.44,WNW,297,9.7,9.7,71,0.00,,SKC,0.08,VWS V14.01,2013-05-25 08:51:00,
2013-05-25 04:56:00,44.6,35.4,29.44,NE,42,5.6,5.6,70,0.04,,SKC,0.12,VWS V14.01,2013-05-25 08:56:00,
2013-05-25 05:01:00,44.6,35.4,29.44,ESE,105,5.6,5.6,70,0.04,,SKC,0.12,VWS V14.01,2013-05-25 09:01:00,
2013-05-25 05:06:00,44.6,35.8,29.44,West,267,5.6,5.6,71,0.04,,SKC,0.12,VWS V14.01,2013-05-25 09:06:00,
2013-05-25 05:11:00,44.6,35.8,29.44,East,83,0.0,3.6,71,0.04,,SKC,0.12,VWS V14.01,2013-05-25 09:11:00,
2013-05-25 05:16:00,44.6,35.8,29.44,North,357,0.0,0.0,71,0.04,,SKC,0.12,VWS V14.01,2013-05-25 09:16:00,
2013-05-25 05:21:00,44.6,35.8,29.44,NE,41,0.0,0.0,71,0.12,,SKC,0.20,VWS V14.01,2013-05-25 09:21:00,
2013-05-25 05:26:00,44.6,35.8,29.44,North,6,0.0,3.6,71,0.16,,SKC,0.24,VWS V14.01,2013-05-25 09:26:00,
2013-05-25 05:31:00,44.4,35.6,29.44,NE,54,0.0,4.0,71,0.16,,SKC,0.24,VWS V14.01,2013-05-25 09:31:00,
2013-05-25 05:36:00,44.4,36.0,29.44,NNE,21,0.0,0.0,72,0.20,,SKC,0.28,VWS V14.01,2013-05-25 09:36:00,
2013-05-25 05:41:00,44.6,36.2,29.44,NW,316,0.0,4.0,72,0.20,,SKC,0.28,VWS V14.01,2013-05-25 09:41:00,
2013-05-25 05:46:00,44.6,36.2,29.44,East,89,6.4,6.4,72,0.24,,SKC,0.31,VWS V14.01,2013-05-25 09:46:00,
2013-05-25 05:51:00,44.6,36.5,29.44,ENE,71,4.8,5.4,73,0.24,,SKC,0.31,VWS V14.01,2013-05-25 09:51:00,
2013-05-25 05:56:00,44.6,36.5,29.44,NE,48,0.0,0.0,73,0.20,,SKC,0.31,VWS V14.01,2013-05-25 09:56:00,
2013-05-25 06:01:00,44.6,36.8,29.44,NE,49,0.0,0.0,74,0.20,,SKC,0.31,VWS V14.01,2013-05-25 10:01:00,
2013-05-25 06:06:00,44.6,36.8,29.44,East,87,0.0,0.0,74,0.24,,SKC,0.35,VWS V14.01,2013-05-25 10:06:00,
2013-05-25 06:11:00,44.6,36.8,29.44,East,86,0.0,0.0,74,0.24,,SKC,0.35,VWS V14.01,2013-05-25 10:11:00,
2013-05-25 06:16:00,44.6,36.8,29.44,SE,133,4.8,4.8,74,0.24,,SKC,0.35,VWS V14.01,2013-05-25 10:16:00,
2013-05-25 06:21:00,44.6,36.8,29.44,North,11,4.0,4.0,74,0.16,,SKC,0.35,VWS V14.01,2013-05-25 10:21:00,
2013-05-25 06:26:00,44.6,36.8,29.44,West,276,4.0,4.0,74,0.16,,SKC,0.35,VWS V14.01,2013-05-25 10:26:00,
2013-05-25 06:31:00,44.6,36.8,29.44,WNW,299,4.0,4.0,74,0.12,,SKC,0.35,VWS V14.01,2013-05-25 10:31:00,
2013-05-25 06:36:00,44.6,36.8,29.44,NE,49,6.4,6.4,74,0.12,,SKC,0.35,VWS V14.01,2013-05-25 10:36:00,
2013-05-25 06:41:00,44.8,37.0,29.44,North,0,0.0,2.2,74,0.08,,SKC,0.35,VWS V14.01,2013-05-25 10:41:00,
2013-05-25 06:46:00,44.6,36.8,29.44,ESE,112,4.0,4.0,74,0.04,,SKC,0.35,VWS V14.01,2013-05-25 10:46:00,
2013-05-25 06:51:00,44.8,37.0,29.44,North,357,0.0,0.0,74,0.08,,SKC,0.39,VWS V14.01,2013-05-25 10:51:00,
2013-05-25 06:56:00,44.8,37.0,29.44,ENE,69,0.0,2.7,74,0.08,,SKC,0.39,VWS V14.01,2013-05-25 10:56:00,
2013-05-25 07:01:00,44.8,37.0,29.44,NNE,23,0.0,2.2,74,0.08,,SKC,0.39,VWS V14.01,2013-05-25 11:01:00,
2013-05-25 07:06:00,45.0,37.2,29.44,SSE,153,0.0,0.0,74,0.04,,SKC,0.39,VWS V14.01,2013-05-25 11:06:00,
2013-05-25 07:11:00,45.1,37.4,29.44,ENE,71,4.8,4.9,74,0.04,,SKC,0.39,VWS V14.01,2013-05-25 11:11:00,
2013-05-25 07:16:00,45.1,37.4,29.44,North,1,0.0,4.9,74,0.04,,SKC,0.39,VWS V14.01,2013-05-25 11:16:00,
2013-05-25 07:20:00,45.3,37.5,29.44,SE,129,7.2,7.2,74,0.04,,SKC,0.39,VWS V14.01,2013-05-25 11:20:00,
2013-05-25 07:25:00,45.3,37.5,29.44,WNW,295,5.6,5.6,74,0.04,,SKC,0.39,VWS V14.01,2013-05-25 11:25:00,
2013-05-25 07:30:00,45.3,37.2,29.47,NW,309,6.4,6.4,73,0.04,,SKC,0.39,VWS V14.01,2013-05-25 11:30:00,
2013-05-25 07:35:00,45.3,37.2,29.47,NNE,30,0.0,0.0,73,0.04,,SKC,0.39,VWS V14.01,2013-05-25 11:35:00,
2013-05-25 07:40:00,45.5,37.4,29.47,ESE,113,5.6,5.6,73,0.04,,SKC,0.39,VWS V14.01,2013-05-25 11:40:00,
2013-05-25 07:45:00,45.5,37.0,29.47,NW,321,4.8,4.8,72,0.04,,SKC,0.39,VWS V14.01,2013-05-25 11:45:00,
2013-05-25 07:50:00,45.5,37.0,29.47,ENE,71,6.4,6.4,72,0.00,,SKC,0.39,VWS V14.01,2013-05-25 11:50:00,
2013-05-25 07:55:00,45.7,36.8,29.47,SE,130,6.4,6.4,71,0.00,,SKC,0.39,VWS V14.01,2013-05-25 11:55:00,
2013-05-25 08:00:00,45.7,36.8,29.47,WNW,301,4.0,4.0,71,0.00,,SKC,0.39,VWS V14.01,2013-05-25 12:00:00,
2013-05-25 08:05:00,45.9,37.0,29.47,ESE,123,6.4,6.4,71,0.00,,SKC,0.39,VWS V14.01,2013-05-25 12:05:00,
2013-05-25 08:10:00,45.9,36.6,29.47,West,279,0.0,3.1,70,0.00,,SKC,0.39,VWS V14.01,2013-05-25 12:10:00,
2013-05-25 08:15:00,46.0,36.8,29.44,East,81,6.4,6.4,70,0.00,,SKC,0.39,VWS V14.01,2013-05-25 12:15:00,
2013-05-25 08:20:00,46.4,36.8,29.44,ENE,59,0.0,0.0,69,0.00,,SKC,0.39,VWS V14.01,2013-05-25 12:20:00,
2013-05-25 08:25:00,46.6,37.0,29.44,NE,35,0.0,2.2,69,0.00,,SKC,0.39,VWS V14.01,2013-05-25 12:25:00,
2013-05-25 08:30:00,46.8,36.4,29.47,NW,315,4.8,4.8,67,0.00,,SKC,0.39,VWS V14.01,2013-05-25 12:30:00,
2013-05-25 08:35:00,47.3,36.9,29.47,West,264,4.8,4.8,67,0.00,,SKC,0.39,VWS V14.01,2013-05-25 12:35:00,
2013-05-25 08:40:00,47.5,35.5,29.47,ESE,121,5.6,5.6,63,0.00,,SKC,0.39,VWS V14.01,2013-05-25 12:40:00,
2013-05-25 08:45:00,47.7,34.9,29.47,ENE,63,5.6,5.6,61,0.00,,SKC,0.39,VWS V14.01,2013-05-25 12:45:00,
2013-05-25 08:50:00,47.8,32.5,29.47,SW,218,4.8,4.8,55,0.00,,SKC,0.39,VWS V14.01,2013-05-25 12:50:00,
2013-05-25 08:55:00,48.2,33.3,29.47,NE,38,6.4,6.4,56,0.00,,SKC,0.39,VWS V14.01,2013-05-25 12:55:00,
2013-05-25 09:00:00,48.4,32.0,29.47,SSE,150,11.3,11.3,53,0.00,,SKC,0.39,VWS V14.01,2013-05-25 13:00:00,
2013-05-25 09:05:00,48.6,29.8,29.47,North,357,4.0,4.0,48,0.00,,SKC,0.39,VWS V14.01,2013-05-25 13:05:00,
2013-05-25 09:10:00,48.7,29.9,29.47,East,86,5.6,5.6,48,0.00,,SKC,0.39,VWS V14.01,2013-05-25 13:10:00,
2013-05-25 09:15:00,48.7,29.9,29.47,ESE,113,4.0,4.0,48,0.00,,SKC,0.39,VWS V14.01,2013-05-25 13:15:00,
2013-05-25 09:20:00,48.7,28.9,29.47,ESE,102,6.4,6.4,46,0.00,,SKC,0.39,VWS V14.01,2013-05-25 13:20:00,
2013-05-25 09:25:00,48.6,28.2,29.47,NNW,327,4.0,4.0,45,0.00,,SKC,0.39,VWS V14.01,2013-05-25 13:25:00,
2013-05-25 09:30:00,48.7,29.4,29.44,ENE,77,9.7,9.7,47,0.00,,SKC,0.39,VWS V14.01,2013-05-25 13:30:00,
2013-05-25 09:35:00,48.7,29.4,29.44,East,98,4.8,4.8,47,0.00,,SKC,0.39,VWS V14.01,2013-05-25 13:35:00,
2013-05-25 09:40:00,48.7,29.4,29.44,East,91,0.0,3.6,47,0.00,,SKC,0.39,VWS V14.01,2013-05-25 13:40:00,
2013-05-25 09:45:00,48.7,28.9,29.47,East,89,6.4,6.4,46,0.00,,SKC,0.39,VWS V14.01,2013-05-25 13:45:00,
2013-05-25 09:50:00,48.7,28.4,29.47,NE,55,6.4,6.7,45,0.00,,SKC,0.39,VWS V14.01,2013-05-25 13:50:00,
2013-05-25 09:55:00,48.7,28.9,29.47,NNW,343,0.0,6.3,46,0.00,,SKC,0.39,VWS V14.01,2013-05-25 13:55:00,
2013-05-25 10:00:00,48.9,29.1,29.44,NW,323,5.6,6.3,46,0.00,,SKC,0.00,VWS V14.01,2013-05-25 14:00:00,
2013-05-25 10:05:00,48.9,28.5,29.44,North,357,0.0,4.9,45,0.00,,SKC,0.39,VWS V14.01,2013-05-25 14:05:00,
2013-05-25 10:10:00,48.9,29.6,29.44,NE,36,0.0,0.0,47,0.00,,SKC,0.39,VWS V14.01,2013-05-25 14:10:00,
2013-05-25 10:15:00,49.1,29.8,29.44,East,88,4.8,4.8,47,0.00,,SKC,0.39,VWS V14.01,2013-05-25 14:15:00,
2013-05-25 10:20:00,49.5,30.1,29.44,NNE,27,5.6,5.6,47,0.00,,SKC,0.39,VWS V14.01,2013-05-25 14:20:00,
2013-05-25 10:25:00,49.6,29.2,29.44,SSE,149,4.8,5.4,45,0.00,,SKC,0.39,VWS V14.01,2013-05-25 14:25:00,
2013-05-25 10:30:00,50.0,29.0,29.44,West,280,0.0,0.0,44,0.00,,SKC,0.39,VWS V14.01,2013-05-25 14:30:00,
2013-05-25 10:35:00,50.2,29.7,29.44,North,8,0.0,0.0,45,0.00,,SKC,0.39,VWS V14.01,2013-05-25 14:35:00,
2013-05-25 10:40:00,50.4,29.8,29.44,East,97,5.6,5.8,45,0.00,,SKC,0.39,VWS V14.01,2013-05-25 14:40:00,
2013-05-25 10:45:00,50.4,29.8,29.44,West,259,10.5,10.5,45,0.00,,SKC,0.39,VWS V14.01,2013-05-25 14:45:00,
2013-05-25 10:50:00,50.4,29.8,29.44,West,271,4.8,4.8,45,0.00,,SKC,0.39,VWS V14.01,2013-05-25 14:50:00,
2013-05-25 10:55:00,50.4,29.8,29.44,ESE,108,0.0,3.1,45,0.00,,SKC,0.39,VWS V14.01,2013-05-25 14:55:00,
2013-05-25 11:00:00,50.2,30.8,29.44,ENE,66,0.0,3.1,47,0.00,,SKC,0.39,VWS V14.01,2013-05-25 15:00:00,
2013-05-25 11:05:00,49.6,30.2,29.44,NW,316,10.5,10.5,47,0.00,,SKC,0.39,VWS V14.01,2013-05-25 15:05:00,
2013-05-25 11:10:00,49.3,31.0,29.44,NW,309,5.6,5.6,49,0.00,,SKC,0.39,VWS V14.01,2013-05-25 15:10:00,
2013-05-25 11:15:00,48.9,30.6,29.47,NW,320,6.4,6.4,49,0.00,,SKC,0.39,VWS V14.01,2013-05-25 15:15:00,
2013-05-25 11:20:00,48.7,29.9,29.47,NNW,343,5.6,10.1,48,0.00,,SKC,0.39,VWS V14.01,2013-05-25 15:20:00,
2013-05-25 11:25:00,48.7,30.5,29.47,ESE,104,6.4,6.4,49,0.00,,SKC,0.39,VWS V14.01,2013-05-25 15:25:00,
2013-05-25 11:30:00,48.9,32.1,29.47,WSW,258,0.0,0.0,52,0.00,,SKC,0.39,VWS V14.01,2013-05-25 15:30:00,
2013-05-25 11:35:00,48.9,32.1,29.47,NW,315,0.0,2.7,52,0.00,,SKC,0.39,VWS V14.01,2013-05-25 15:35:00,
2013-05-25 11:40:00,49.1,32.7,29.47,SSE,159,4.0,5.4,53,0.00,,SKC,0.39,VWS V14.01,2013-05-25 15:40:00,
2013-05-25 11:45:00,48.9,31.6,29.47,ESE,115,0.0,3.1,51,0.00,,SKC,0.39,VWS V14.01,2013-05-25 15:45:00,
2013-05-25 11:50:00,49.1,32.7,29.47,ESE,120,0.0,0.0,53,0.00,,SKC,0.39,VWS V14.01,2013-05-25 15:50:00,
2013-05-25 11:55:00,49.1,32.7,29.47,ESE,120,0.0,0.0,53,0.00,,SKC,0.39,VWS V14.01,2013-05-25 15:55:00,
2013-05-25 12:00:00,48.9,32.6,29.47,West,275,0.0,0.0,53,0.00,,SKC,0.39,VWS V14.01,2013-05-25 16:00:00,
2013-05-25 12:05:00,48.9,33.0,29.47,East,93,4.8,4.8,54,0.00,,SKC,0.39,VWS V14.01,2013-05-25 16:05:00,
2013-05-25 12:10:00,48.7,32.8,29.47,ESE,108,7.2,7.2,54,0.00,,SKC,0.39,VWS V14.01,2013-05-25 16:10:00,
2013-05-25 12:15:00,48.7,33.8,29.47,ESE,104,6.4,6.4,56,0.00,,SKC,0.39,VWS V14.01,2013-05-25 16:15:00,
2013-05-25 12:20:00,48.7,33.3,29.47,ENE,69,0.0,2.7,55,0.00,,SKC,0.39,VWS V14.01,2013-05-25 16:20:00,
2013-05-25 12:25:00,48.9,34.4,29.47,North,349,7.2,7.2,57,0.00,,SKC,0.39,VWS V14.01,2013-05-25 16:25:00,
2013-05-25 12:30:00,48.9,34.4,29.47,East,92,0.0,3.1,57,0.00,,SKC,0.39,VWS V14.01,2013-05-25 16:30:00,
2013-05-25 12:35:00,48.9,34.8,29.47,ESE,105,0.0,4.9,58,0.00,,SKC,0.39,VWS V14.01,2013-05-25 16:35:00,
2013-05-25 12:40:00,48.9,34.4,29.47,SE,146,0.0,0.0,57,0.00,,SKC,0.39,VWS V14.01,2013-05-25 16:40:00,
2013-05-25 12:45:00,48.9,34.4,29.47,NW,320,0.0,4.0,57,0.00,,SKC,0.39,VWS V14.01,2013-05-25 16:45:00,
2013-05-25 12:50:00,49.1,34.5,29.47,ESE,110,0.0,0.0,57,0.00,,SKC,0.39,VWS V14.01,2013-05-25 16:50:00,
2013-05-25 12:55:00,49.3,34.3,29.47,NNE,33,0.0,3.6,56,0.00,,SKC,0.39,VWS V14.01,2013-05-25 16:55:00,
2013-05-25 13:00:00,49.3,34.3,29.47,East,80,0.0,2.2,56,0.00,,SKC,0.39,VWS V14.01,2013-05-25 17:00:00,
2013-05-25 13:05:00,49.3,33.8,29.47,ESE,104,4.0,4.0,55,0.00,,SKC,0.39,VWS V14.01,2013-05-25 17:05:00,
2013-05-25 13:10:00,49.3,32.9,29.47,ESE,112,0.0,4.0,53,0.00,,SKC,0.39,VWS V14.01,2013-05-25 17:10:00,
2013-05-25 13:15:00,49.5,33.5,29.47,West,275,4.8,6.3,54,0.00,,SKC,0.39,VWS V14.01,2013-05-25 17:15:00,
2013-05-25 13:20:00,49.5,33.5,29.47,ESE,102,0.0,0.0,54,0.00,,SKC,0.39,VWS V14.01,2013-05-25 17:20:00,
2013-05-25 13:25:00,49.5,33.1,29.47,East,85,0.0,0.0,53,0.00,,SKC,0.39,VWS V14.01,2013-05-25 17:25:00,
2013-05-25 13:30:00,49.5,33.1,29.44,NW,308,6.4,6.4,53,0.04,,SKC,0.43,VWS V14.01,2013-05-25 17:30:00,
2013-05-25 13:35:00,49.5,32.6,29.44,NW,320,0.0,3.1,52,0.04,,SKC,0.43,VWS V14.01,2013-05-25 17:35:00,
2013-05-25 13:40:00,49.5,32.1,29.44,SE,145,6.4,6.4,51,0.04,,SKC,0.43,VWS V14.01,2013-05-25 17:40:00,
2013-05-25 13:45:00,49.3,30.4,29.44,NNE,26,4.8,4.8,48,0.04,,SKC,0.43,VWS V14.01,2013-05-25 17:45:00,
2013-05-25 13:49:00,49.6,31.3,29.44,NNW,327,5.6,5.6,49,0.04,,SKC,0.43,VWS V14.01,2013-05-25 17:49:00,
2013-05-25 13:54:00,49.6,30.2,29.44,ESE,105,7.2,7.2,47,0.04,,SKC,0.43,VWS V14.01,2013-05-25 17:54:00,
2013-05-25 13:59:00,49.8,30.4,29.44,East,82,5.6,7.2,47,0.04,,SKC,0.43,VWS V14.01,2013-05-25 17:59:00,
2013-05-25 14:04:00,49.8,30.4,29.44,ENE,61,12.9,12.9,47,0.04,,SKC,0.43,VWS V14.01,2013-05-25 18:04:00,
2013-05-25 14:09:00,49.8,30.4,29.44,West,270,4.8,4.8,47,0.04,,SKC,0.43,VWS V14.01,2013-05-25 18:09:00,
2013-05-25 14:14:00,49.6,30.8,29.47,NE,51,7.2,7.2,48,0.04,,SKC,0.43,VWS V14.01,2013-05-25 18:14:00,
2013-05-25 14:19:00,49.6,30.2,29.47,NW,314,4.0,4.0,47,0.04,,SKC,0.43,VWS V14.01,2013-05-25 18:19:00,
2013-05-25 14:24:00,49.5,29.6,29.47,SW,235,4.8,4.8,46,0.04,,SKC,0.43,VWS V14.01,2013-05-25 18:24:00,
2013-05-25 14:29:00,49.5,30.1,29.47,NNW,335,6.4,6.4,47,0.04,,SKC,0.43,VWS V14.01,2013-05-25 18:29:00,
2013-05-25 14:34:00,49.3,28.9,29.47,North,0,6.4,6.4,45,0.00,,SKC,0.43,VWS V14.01,2013-05-25 18:34:00,
2013-05-25 14:39:00,49.5,30.6,29.47,WNW,296,6.4,6.4,48,0.00,,SKC,0.43,VWS V14.01,2013-05-25 18:39:00,
2013-05-25 14:44:00,49.6,30.8,29.47,NE,39,4.0,4.0,48,0.00,,SKC,0.43,VWS V14.01,2013-05-25 18:44:00,
2013-05-25 14:49:00,49.6,30.8,29.47,SE,124,5.6,5.6,48,0.00,,SKC,0.43,VWS V14.01,2013-05-25 18:49:00,
2013-05-25 14:54:00,49.6,30.8,29.47,NE,46,4.8,4.8,48,0.00,,SKC,0.43,VWS V14.01,2013-05-25 18:54:00,
2013-05-25 14:59:00,49.5,28.5,29.47,ESE,109,7.2,7.2,44,0.00,,SKC,0.43,VWS V14.01,2013-05-25 18:59:00,
2013-05-25 15:04:00,49.6,28.6,29.47,North,357,7.2,7.2,44,0.00,,SKC,0.43,VWS V14.01,2013-05-25 19:04:00,
2013-05-25 15:09:00,49.6,26.9,29.47,NE,36,8.9,8.9,41,0.00,,SKC,0.43,VWS V14.01,2013-05-25 19:09:00,
2013-05-25 15:14:00,49.8,26.5,29.47,SSE,159,8.9,8.9,40,0.00,,SKC,0.43,VWS V14.01,2013-05-25 19:14:00,
2013-05-25 15:19:00,49.8,26.5,29.47,WNW,301,4.0,4.0,40,0.00,,SKC,0.43,VWS V14.01,2013-05-25 19:19:00,
2013-05-25 15:24:00,49.8,27.1,29.47,NNW,345,7.2,7.6,41,0.00,,SKC,0.43,VWS V14.01,2013-05-25 19:24:00,
2013-05-25 15:29:00,50.2,26.2,29.47,NE,38,6.4,6.4,39,0.00,,SKC,0.43,VWS V14.01,2013-05-25 19:29:00,
2013-05-25 15:34:00,50.4,26.4,29.47,NNE,32,9.7,9.7,39,0.00,,SKC,0.43,VWS V14.01,2013-05-25 19:34:00,
2013-05-25 15:39:00,50.7,26.7,29.47,NNW,346,13.7,13.7,39,0.00,,SKC,0.43,VWS V14.01,2013-05-25 19:39:00,
2013-05-25 15:44:00,50.9,25.6,29.47,NNW,327,4.0,4.0,37,0.00,,SKC,0.43,VWS V14.01,2013-05-25 19:44:00,
2013-05-25 15:49:00,51.3,25.9,29.47,ENE,70,5.6,5.6,37,0.00,,SKC,0.43,VWS V14.01,2013-05-25 19:49:00,
2013-05-25 15:54:00,51.3,25.9,29.47,North,0,6.4,6.4,37,0.00,,SKC,0.43,VWS V14.01,2013-05-25 19:54:00,
2013-05-25 15:59:00,51.3,27.2,29.47,East,97,7.2,7.2,39,0.00,,SKC,0.43,VWS V14.01,2013-05-25 19:59:00,
2013-05-25 16:04:00,50.7,26.0,29.47,NNE,21,14.5,14.5,38,0.04,,SKC,0.47,VWS V14.01,2013-05-25 20:04:00,
2013-05-25 16:09:00,50.2,28.0,29.47,East,99,0.0,2.7,42,0.04,,SKC,0.47,VWS V14.01,2013-05-25 20:09:00,
2013-05-25 16:14:00,50.0,29.5,29.47,NE,44,6.4,6.4,45,0.04,,SKC,0.47,VWS V14.01,2013-05-25 20:14:00,
2013-05-25 16:19:00,49.8,29.9,29.47,ENE,59,0.0,4.0,46,0.04,,SKC,0.47,VWS V14.01,2013-05-25 20:19:00,
2013-05-25 16:24:00,50.0,29.5,29.47,SSE,168,0.0,0.0,45,0.04,,SKC,0.47,VWS V14.01,2013-05-25 20:24:00,
2013-05-25 16:29:00,50.0,29.5,29.47,NE,44,5.6,5.6,45,0.04,,SKC,0.47,VWS V14.01,2013-05-25 20:29:00,
2013-05-25 16:34:00,50.0,29.0,29.47,WSW,241,4.8,5.8,44,0.04,,SKC,0.47,VWS V14.01,2013-05-25 20:34:00,
2013-05-25 16:39:00,49.8,29.4,29.47,NNE,15,4.8,5.4,45,0.04,,SKC,0.47,VWS V14.01,2013-05-25 20:39:00,
2013-05-25 16:44:00,49.5,27.9,29.47,East,96,4.8,6.3,43,0.04,,SKC,0.47,VWS V14.01,2013-05-25 20:44:00,
2013-05-25 16:49:00,49.5,29.6,29.47,East,89,7.2,7.2,46,0.04,,SKC,0.47,VWS V14.01,2013-05-25 20:49:00,
2013-05-25 16:54:00,49.3,28.3,29.47,WNW,300,4.8,5.8,44,0.04,,SKC,0.47,VWS V14.01,2013-05-25 20:54:00,
2013-05-25 16:59:00,49.1,27.0,29.47,ENE,70,4.8,4.8,42,0.04,,SKC,0.47,VWS V14.01,2013-05-25 20:59:00,
2013-05-25 17:04:00,48.9,28.5,29.50,NE,52,6.4,6.4,45,0.00,,SKC,0.47,VWS V14.01,2013-05-25 21:04:00,
2013-05-25 17:09:00,48.6,28.2,29.50,East,96,0.0,2.2,45,0.00,,SKC,0.47,VWS V14.01,2013-05-25 21:09:00,
2013-05-25 17:14:00,48.6,28.7,29.50,North,357,0.0,3.1,46,0.00,,SKC,0.47,VWS V14.01,2013-05-25 21:14:00,
2013-05-25 17:19:00,48.7,29.4,29.50,NNW,328,11.3,11.3,47,0.00,,SKC,0.47,VWS V14.01,2013-05-25 21:19:00,
2013-05-25 17:24:00,48.9,30.1,29.50,WNW,292,9.7,9.7,48,0.00,,SKC,0.47,VWS V14.01,2013-05-25 21:24:00,
2013-05-25 17:29:00,49.1,29.2,29.50,NE,56,5.6,5.6,46,0.00,,SKC,0.47,VWS V14.01,2013-05-25 21:29:00,
2013-05-25 17:34:00,49.5,29.0,29.50,East,92,0.0,0.0,45,0.00,,SKC,0.47,VWS V14.01,2013-05-25 21:34:00,
2013-05-25 17:39:00,50.0,29.0,29.50,NNW,334,0.0,3.1,44,0.00,,SKC,0.47,VWS V14.01,2013-05-25 21:39:00,
2013-05-25 17:44:00,50.2,25.6,29.50,NNE,15,8.9,8.9,38,0.00,,SKC,0.47,VWS V14.01,2013-05-25 21:44:00,
2013-05-25 17:49:00,50.7,26.7,29.50,NW,314,0.0,2.7,39,0.00,,SKC,0.47,VWS V14.01,2013-05-25 21:49:00,
2013-05-25 17:54:00,50.7,26.0,29.50,ENE,76,5.6,5.6,38,0.00,,SKC,0.47,VWS V14.01,2013-05-25 21:54:00,
2013-05-25 17:59:00,50.4,24.4,29.50,NW,319,6.4,6.7,36,0.00,,SKC,0.47,VWS V14.01,2013-05-25 21:59:00,
2013-05-25 18:04:00,50.4,24.4,29.50,East,97,8.9,8.9,36,0.00,,SKC,0.47,VWS V14.01,2013-05-25 22:04:00,
2013-05-25 18:09:00,50.4,25.1,29.50,SSW,197,4.0,6.3,37,0.00,,SKC,0.47,VWS V14.01,2013-05-25 22:09:00,
2013-05-25 18:14:00,50.2,24.9,29.50,East,101,5.6,5.6,37,0.00,,SKC,0.47,VWS V14.01,2013-05-25 22:14:00,
2013-05-25 18:19:00,50.0,25.4,29.50,ESE,121,7.2,7.2,38,0.00,,SKC,0.47,VWS V14.01,2013-05-25 22:19:00,
2013-05-25 18:24:00,50.0,24.8,29.50,NNW,348,0.0,3.6,37,0.00,,SKC,0.47,VWS V14.01,2013-05-25 22:24:00,
2013-05-25 18:29:00,49.8,25.2,29.50,NE,56,9.7,9.7,38,0.00,,SKC,0.47,VWS V14.01,2013-05-25 22:29:00,
2013-05-25 18:34:00,49.8,24.6,29.50,ESE,116,7.2,7.2,37,0.00,,SKC,0.47,VWS V14.01,2013-05-25 22:34:00,
2013-05-25 18:39:00,49.8,24.6,29.50,NNE,21,6.4,6.4,37,0.00,,SKC,0.47,VWS V14.01,2013-05-25 22:39:00,
2013-05-25 18:44:00,50.0,24.1,29.50,NNE,18,7.2,7.2,36,0.00,,SKC,0.47,VWS V14.01,2013-05-25 22:44:00,
2013-05-25 18:49:00,50.0,24.1,29.50,East,93,4.8,4.8,36,0.00,,SKC,0.47,VWS V14.01,2013-05-25 22:49:00,
2013-05-25 18:54:00,49.8,22.6,29.50,NNW,331,4.8,4.8,34,0.00,,SKC,0.47,VWS V14.01,2013-05-25 22:54:00,
2013-05-25 18:59:00,50.0,22.0,29.50,NNE,15,0.0,2.2,33,0.00,,SKC,0.47,VWS V14.01,2013-05-25 22:59:00,
2013-05-25 19:04:00,50.0,24.1,29.53,ENE,73,9.7,9.7,36,0.00,,SKC,0.47,VWS V14.01,2013-05-25 23:04:00,
2013-05-25 19:09:00,50.0,24.1,29.53,NE,48,0.0,0.0,36,0.00,,SKC,0.47,VWS V14.01,2013-05-25 23:09:00,
2013-05-25 19:14:00,50.2,24.3,29.53,NW,312,0.0,0.0,36,0.00,,SKC,0.47,VWS V14.01,2013-05-25 23:14:00,
2013-05-25 19:19:00,50.0,24.1,29.53,SW,220,5.6,5.6,36,0.00,,SKC,0.47,VWS V14.01,2013-05-25 23:19:00,
2013-05-25 19:24:00,50.0,24.1,29.53,NW,308,0.0,0.0,36,0.00,,SKC,0.47,VWS V14.01,2013-05-25 23:24:00,
2013-05-25 19:28:00,50.0,23.4,29.53,NE,44,0.0,0.0,35,0.00,,SKC,0.47,VWS V14.01,2013-05-25 23:28:00,
2013-05-25 19:33:00,50.0,22.8,29.53,NE,48,0.0,0.0,34,0.00,,SKC,0.47,VWS V14.01,2013-05-25 23:33:00,
2013-05-25 19:38:00,50.0,20.6,29.53,East,101,0.0,2.7,31,0.00,,SKC,0.47,VWS V14.01,2013-05-25 23:38:00,
2013-05-25 19:43:00,50.0,23.4,29.53,SSW,197,0.0,2.2,35,0.00,,SKC,0.47,VWS V14.01,2013-05-25 23:43:00,
2013-05-25 19:48:00,50.0,21.3,29.53,North,2,4.0,4.0,32,0.00,,SKC,0.47,VWS V14.01,2013-05-25 23:48:00,
2013-05-25 19:53:00,50.2,22.2,29.53,NNW,332,4.8,4.8,33,0.00,,SKC,0.47,VWS V14.01,2013-05-25 23:53:00,
2013-05-25 19:58:00,50.2,21.5,29.53,WSW,256,4.8,4.8,32,0.00,,SKC,0.47,VWS V14.01,2013-05-25 23:58:00,
2013-05-25 20:03:00,50.2,20.7,29.53,NE,49,0.0,0.0,31,0.00,,SKC,0.47,VWS V14.01,2013-05-26 00:03:00,
2013-05-25 20:08:00,50.2,21.5,29.53,WNW,287,6.4,6.4,32,0.00,,SKC,0.47,VWS V14.01,2013-05-26 00:08:00,
2013-05-25 20:13:00,50.2,20.0,29.53,WNW,301,6.4,6.4,30,0.00,,SKC,0.47,VWS V14.01,2013-05-26 00:13:00,
2013-05-25 20:18:00,50.2,21.5,29.53,WSW,250,4.8,4.8,32,0.00,,SKC,0.47,VWS V14.01,2013-05-26 00:18:00,
2013-05-25 20:23:00,50.0,20.6,29.53,West,270,4.8,4.8,31,0.00,,SKC,0.47,VWS V14.01,2013-05-26 00:23:00,
2013-05-25 20:28:00,50.0,20.6,29.53,East,98,0.0,2.7,31,0.00,,SKC,0.47,VWS V14.01,2013-05-26 00:28:00,
2013-05-25 20:33:00,49.8,21.2,29.53,NNE,13,0.0,0.0,32,0.00,,SKC,0.47,VWS V14.01,2013-05-26 00:33:00,
2013-05-25 20:38:00,49.8,21.2,29.53,North,0,4.0,4.0,32,0.00,,SKC,0.47,VWS V14.01,2013-05-26 00:38:00,
2013-05-25 20:43:00,49.8,21.2,29.53,ESE,117,10.5,10.5,32,0.00,,SKC,0.47,VWS V14.01,2013-05-26 00:43:00,
2013-05-25 20:48:00,49.6,20.3,29.53,ESE,111,10.5,10.5,31,0.00,,SKC,0.47,VWS V14.01,2013-05-26 00:48:00,
2013-05-25 20:53:00,49.6,20.3,29.53,NW,304,5.6,5.6,31,0.00,,SKC,0.47,VWS V14.01,2013-05-26 00:53:00,
2013-05-25 20:58:00,49.6,20.3,29.53,NNW,332,4.8,4.8,31,0.00,,SKC,0.47,VWS V14.01,2013-05-26 00:58:00,
2013-05-25 21:03:00,49.6,21.0,29.53,East,80,0.0,0.0,32,0.00,,SKC,0.47,VWS V14.01,2013-05-26 01:03:00,
2013-05-25 21:08:00,49.5,20.9,29.53,NNW,330,0.0,0.0,32,0.00,,SKC,0.47,VWS V14.01,2013-05-26 01:08:00,
2013-05-25 21:13:00,49.5,20.9,29.53,NNE,23,9.7,9.7,32,0.00,,SKC,0.47,VWS V14.01,2013-05-26 01:13:00,
2013-05-25 21:18:00,49.5,20.9,29.53,NE,43,5.6,5.6,32,0.00,,SKC,0.47,VWS V14.01,2013-05-26 01:18:00,
2013-05-25 21:23:00,49.5,20.1,29.53,SE,124,5.6,5.6,31,0.00,,SKC,0.47,VWS V14.01,2013-05-26 01:23:00,
2013-05-25 21:28:00,49.5,20.9,29.53,NW,304,0.0,3.1,32,0.00,,SKC,0.47,VWS V14.01,2013-05-26 01:28:00,
2013-05-25 21:33:00,49.3,20.7,29.53,East,84,5.6,5.6,32,0.00,,SKC,0.47,VWS V14.01,2013-05-26 01:33:00,
2013-05-25 21:38:00,49.3,21.4,29.53,North,353,0.0,2.7,33,0.00,,SKC,0.47,VWS V14.01,2013-05-26 01:38:00,
2013-05-25 21:43:00,49.3,21.4,29.53,ESE,117,0.0,2.7,33,0.00,,SKC,0.47,VWS V14.01,2013-05-26 01:43:00,
2013-05-25 21:48:00,49.1,22.0,29.53,WSW,245,0.0,4.0,34,0.00,,SKC,0.47,VWS V14.01,2013-05-26 01:48:00,
2013-05-25 21:53:00,48.9,21.8,29.53,NNW,341,0.0,3.6,34,0.00,,SKC,0.47,VWS V14.01,2013-05-26 01:53:00,
2013-05-25 21:58:00,48.9,22.5,29.53,ENE,70,0.0,0.0,35,0.00,,SKC,0.47,VWS V14.01,2013-05-26 01:58:00,
2013-05-25 22:03:00,48.7,23.0,29.56,WNW,297,0.0,3.6,36,0.00,,SKC,0.47,VWS V14.01,2013-05-26 02:03:00,
2013-05-25 22:08:00,48.4,23.3,29.56,North,357,6.4,6.4,37,0.00,,SKC,0.47,VWS V14.01,2013-05-26 02:08:00,
2013-05-25 22:13:00,48.2,23.8,29.56,East,88,6.4,6.4,38,0.00,,SKC,0.47,VWS V14.01,2013-05-26 02:13:00,
2013-05-25 22:18:00,48.0,23.6,29.53,ENE,78,6.4,6.4,38,0.00,,SKC,0.47,VWS V14.01,2013-05-26 02:18:00,
2013-05-25 22:23:00,47.8,23.5,29.53,East,98,6.4,6.4,38,0.00,,SKC,0.47,VWS V14.01,2013-05-26 02:23:00,
2013-05-25 22:28:00,48.0,23.6,29.53,NW,319,0.0,0.0,38,0.00,,SKC,0.47,VWS V14.01,2013-05-26 02:28:00,
2013-05-25 22:33:00,47.8,22.9,29.53,North,357,4.0,4.0,37,0.00,,SKC,0.47,VWS V14.01,2013-05-26 02:33:00,
2013-05-25 22:38:00,48.0,23.6,29.53,North,353,0.0,0.0,38,0.00,,SKC,0.47,VWS V14.01,2013-05-26 02:38:00,
2013-05-25 22:43:00,47.8,22.9,29.53,NNW,333,0.0,2.2,37,0.00,,SKC,0.47,VWS V14.01,2013-05-26 02:43:00,
2013-05-25 22:48:00,47.8,22.9,29.53,North,9,4.0,4.0,37,0.00,,SKC,0.47,VWS V14.01,2013-05-26 02:48:00,
2013-05-25 22:53:00,47.8,23.5,29.53,NE,44,4.8,5.4,38,0.00,,SKC,0.47,VWS V14.01,2013-05-26 02:53:00,
2013-05-25 22:58:00,47.8,22.9,29.53,North,3,4.0,4.0,37,0.00,,SKC,0.47,VWS V14.01,2013-05-26 02:58:00,
2013-05-25 23:03:00,47.8,22.9,29.53,ESE,122,5.6,5.6,37,0.00,,SKC,0.47,VWS V14.01,2013-05-26 03:03:00,
2013-05-25 23:08:00,47.8,22.9,29.53,North,2,4.8,4.8,37,0.00,,SKC,0.47,VWS V14.01,2013-05-26 03:08:00,
2013-05-25 23:13:00,47.8,22.9,29.53,NE,49,0.0,2.7,37,0.00,,SKC,0.47,VWS V14.01,2013-05-26 03:13:00,
2013-05-25 23:18:00,47.8,22.9,29.53,SE,125,6.4,6.4,37,0.00,,SKC,0.47,VWS V14.01,2013-05-26 03:18:00,
2013-05-25 23:23:00,47.8,22.9,29.53,ENE,57,6.4,6.4,37,0.00,,SKC,0.47,VWS V14.01,2013-05-26 03:23:00,
2013-05-25 23:28:00,47.7,22.0,29.53,ESE,121,8.1,8.1,36,0.00,,SKC,0.47,VWS V14.01,2013-05-26 03:28:00,
2013-05-25 23:33:00,47.7,22.0,29.53,North,2,4.8,4.8,36,0.00,,SKC,0.47,VWS V14.01,2013-05-26 03:33:00,
2013-05-25 23:38:00,47.5,21.9,29.53,WNW,300,10.5,10.5,36,0.00,,SKC,0.47,VWS V14.01,2013-05-26 03:38:00,
2013-05-25 23:43:00,47.5,21.9,29.53,North,3,4.8,4.8,36,0.00,,SKC,0.47,VWS V14.01,2013-05-26 03:43:00,
2013-05-25 23:48:00,47.5,22.5,29.53,East,80,6.4,6.4,37,0.00,,SKC,0.47,VWS V14.01,2013-05-26 03:48:00,
2013-05-25 23:53:00,47.3,22.4,29.53,ESE,106,14.5,14.5,37,0.00,,SKC,0.47,VWS V14.01,2013-05-26 03:53:00,
2013-05-25 23:58:00,47.3,22.4,29.53,North,5,8.9,8.9,37,0.00,,SKC,0.47,VWS V14.01,2013-05-26 03:58:00,